createdAt,value
2019-02-23T00:00:12.745Z,0.00
2019-02-23T00:01:11.953Z,0.00
2019-02-23T00:02:11.985Z,0.00
2019-02-23T00:03:12.029Z,0.00
2019-02-23T00:04:12.061Z,0.00
2019-02-23T00:05:12.114Z,0.00
2019-02-23T00:06:12.169Z,0.00
2019-02-23T00:07:12.253Z,0.00
2019-02-23T00:08:12.235Z,0.00
2019-02-23T00:09:12.271Z,0.00
2019-02-23T00:10:12.322Z,0.00
2019-02-23T00:11:12.382Z,0.00
2019-02-23T00:12:12.401Z,0.00
2019-02-23T00:13:12.448Z,0.00
2019-02-23T00:14:12.495Z,0.00
2019-02-23T00:15:12.532Z,0.00
2019-02-23T00:16:12.623Z,0.00
2019-02-23T00:17:12.624Z,0.00
2019-02-23T00:18:12.820Z,0.00
2019-02-23T00:19:24.000Z,0.00
2019-02-23T00:20:12.749Z,0.00
2019-02-23T00:21:12.845Z,0.00
2019-02-23T00:22:12.830Z,0.00
2019-02-23T00:23:12.873Z,0.00
2019-02-23T00:24:12.914Z,0.00
2019-02-23T00:25:12.959Z,0.00
2019-02-23T00:26:13.034Z,0.00
2019-02-23T00:27:13.059Z,0.00
2019-02-23T00:28:13.091Z,0.00
2019-02-23T00:29:13.124Z,0.00
2019-02-23T00:30:13.170Z,0.00
2019-02-23T00:31:13.211Z,0.00
2019-02-23T00:32:13.286Z,0.00
2019-02-23T00:33:13.293Z,0.00
2019-02-23T00:34:13.332Z,0.00
2019-02-23T00:35:13.393Z,0.00
2019-02-23T00:36:13.416Z,0.00
2019-02-23T00:37:13.483Z,0.00
2019-02-23T00:38:13.516Z,0.00
2019-02-23T00:39:13.545Z,0.00
2019-02-23T00:40:13.592Z,0.00
2019-02-23T00:41:13.629Z,0.00
2019-02-23T00:42:13.690Z,0.00
2019-02-23T00:43:13.721Z,0.00
2019-02-23T00:44:13.766Z,0.00
2019-02-23T00:45:13.802Z,0.00
2019-02-23T00:46:13.843Z,0.00
2019-02-23T00:47:13.927Z,0.00
2019-02-23T00:48:13.934Z,0.00
2019-02-23T00:49:13.970Z,0.00
2019-02-23T00:50:14.073Z,0.00
2019-02-23T00:51:14.066Z,0.00
2019-02-23T00:52:14.129Z,0.00
2019-02-23T00:53:14.186Z,0.00
2019-02-23T00:54:14.178Z,0.00
2019-02-23T00:55:14.226Z,0.00
2019-02-23T00:56:14.264Z,0.00
2019-02-23T00:57:14.308Z,0.00
2019-02-23T00:58:14.372Z,0.00
2019-02-23T00:59:14.446Z,0.00
2019-02-23T01:00:14.438Z,0.00
2019-02-23T01:01:14.473Z,0.00
2019-02-23T01:02:14.517Z,0.00
2019-02-23T01:03:14.580Z,0.00
2019-02-23T01:04:14.602Z,0.00
2019-02-23T01:05:14.647Z,0.00
2019-02-23T01:06:14.688Z,0.00
2019-02-23T01:07:14.729Z,0.00
2019-02-23T01:08:14.795Z,0.00
2019-02-23T01:09:14.824Z,0.00
2019-02-23T01:10:14.857Z,0.00
2019-02-23T01:11:14.905Z,0.00
2019-02-23T01:12:14.951Z,0.00
2019-02-23T01:13:15.001Z,0.00
2019-02-23T01:14:15.043Z,0.00
2019-02-23T01:15:15.088Z,0.00
2019-02-23T01:16:15.110Z,0.00
2019-02-23T01:17:15.219Z,0.00
2019-02-23T01:18:15.199Z,0.00
2019-02-23T01:19:15.258Z,0.00
2019-02-23T01:20:15.283Z,0.00
2019-02-23T01:21:15.319Z,0.00
2019-02-23T01:22:15.367Z,0.00
2019-02-23T01:23:15.403Z,0.00
2019-02-23T01:24:15.466Z,0.00
2019-02-23T01:25:15.489Z,0.00
2019-02-23T01:26:15.533Z,0.00
2019-02-23T01:27:15.573Z,0.00
2019-02-23T01:28:15.616Z,0.00
2019-02-23T01:29:15.678Z,0.00
2019-02-23T01:30:15.715Z,0.00
2019-02-23T01:31:15.757Z,0.00
2019-02-23T01:32:15.779Z,0.00
2019-02-23T01:33:15.826Z,0.00
2019-02-23T01:34:15.891Z,0.00
2019-02-23T01:35:15.910Z,0.00
2019-02-23T01:36:15.952Z,0.00
2019-02-23T01:37:15.996Z,0.00
2019-02-23T01:38:16.038Z,0.00
2019-02-23T01:39:16.100Z,0.00
2019-02-23T01:40:16.135Z,0.00
2019-02-23T01:41:16.233Z,0.00
2019-02-23T01:42:16.295Z,0.00
2019-02-23T01:43:16.249Z,0.00
2019-02-23T01:44:16.305Z,0.00
2019-02-23T01:45:16.333Z,0.00
2019-02-23T01:46:16.399Z,0.00
2019-02-23T01:47:16.425Z,0.00
2019-02-23T01:48:16.455Z,0.00
2019-02-23T01:49:16.513Z,0.00
2019-02-23T01:50:16.542Z,0.00
2019-02-23T01:51:16.606Z,0.00
2019-02-23T01:52:16.626Z,0.00
2019-02-23T01:53:16.666Z,0.00
2019-02-23T01:54:16.709Z,0.00
2019-02-23T01:55:16.777Z,0.00
2019-02-23T01:56:16.799Z,0.00
2019-02-23T01:57:16.844Z,0.00
2019-02-23T01:58:16.877Z,0.00
2019-02-23T01:59:16.921Z,0.00
2019-02-23T02:00:16.987Z,0.00
2019-02-23T02:01:17.003Z,0.00
2019-02-23T02:02:17.043Z,0.00
2019-02-23T02:03:17.094Z,0.00
2019-02-23T02:04:17.129Z,0.00
2019-02-23T02:05:17.196Z,0.00
2019-02-23T02:06:17.231Z,0.00
2019-02-23T02:07:17.254Z,0.00
2019-02-23T02:08:17.298Z,0.00
2019-02-23T02:09:17.340Z,0.00
2019-02-23T02:10:17.408Z,0.00
2019-02-23T02:11:17.443Z,0.00
2019-02-23T02:12:17.485Z,0.00
2019-02-23T02:13:17.513Z,0.00
2019-02-23T02:14:17.554Z,0.00
2019-02-23T02:15:17.593Z,0.00
2019-02-23T02:16:17.648Z,0.00
2019-02-23T02:17:17.674Z,0.00
2019-02-23T02:18:17.724Z,0.00
2019-02-23T02:19:17.756Z,0.00
2019-02-23T02:20:17.799Z,0.00
2019-02-23T02:21:17.860Z,0.00
2019-02-23T02:22:17.924Z,0.00
2019-02-23T02:23:17.925Z,0.00
2019-02-23T02:24:17.964Z,0.00
2019-02-23T02:25:18.009Z,0.00
2019-02-23T02:26:18.069Z,0.00
2019-02-23T02:27:18.108Z,0.00
2019-02-23T02:28:18.137Z,0.00
2019-02-23T02:29:18.201Z,0.00
2019-02-23T02:30:18.262Z,0.00
2019-02-23T02:31:18.262Z,0.00
2019-02-23T02:32:18.326Z,0.00
2019-02-23T02:33:18.348Z,0.00
2019-02-23T02:34:18.401Z,0.00
2019-02-23T02:35:18.426Z,0.00
2019-02-23T02:36:18.482Z,0.00
2019-02-23T02:37:18.530Z,0.00
2019-02-23T02:38:18.552Z,0.00
2019-02-23T02:39:18.600Z,0.00
2019-02-23T02:40:18.662Z,0.00
2019-02-23T02:41:18.681Z,0.00
2019-02-23T02:42:18.750Z,0.00
2019-02-23T02:43:18.811Z,0.00
2019-02-23T02:44:18.811Z,0.00
2019-02-23T02:45:18.843Z,0.00
2019-02-23T02:46:18.883Z,0.00
2019-02-23T02:47:18.946Z,0.00
2019-02-23T02:48:18.994Z,0.00
2019-02-23T02:49:19.021Z,0.00
2019-02-23T02:50:24.235Z,0.00
2019-02-23T02:51:19.097Z,0.00
2019-02-23T02:52:19.133Z,0.00
2019-02-23T02:53:19.197Z,0.00
2019-02-23T02:54:19.215Z,0.00
2019-02-23T02:55:19.264Z,0.00
2019-02-23T02:56:19.299Z,0.00
2019-02-23T02:57:19.384Z,0.00
2019-02-23T02:58:19.408Z,0.00
2019-02-23T02:59:19.429Z,0.00
2019-02-23T03:00:19.463Z,0.00
2019-02-23T03:01:19.508Z,0.00
2019-02-23T03:02:19.579Z,0.00
2019-02-23T03:03:19.609Z,0.00
2019-02-23T03:04:19.657Z,0.00
2019-02-23T03:05:19.679Z,0.00
2019-02-23T03:06:19.717Z,0.00
2019-02-23T03:07:19.763Z,0.00
2019-02-23T03:08:19.813Z,0.00
2019-02-23T03:09:19.839Z,0.00
2019-02-23T03:10:19.899Z,0.00
2019-02-23T03:11:19.930Z,0.00
2019-02-23T03:12:19.967Z,0.00
2019-02-23T03:13:20.021Z,0.00
2019-02-23T03:14:20.056Z,0.00
2019-02-23T03:15:20.103Z,0.00
2019-02-23T03:16:20.131Z,0.00
2019-02-23T03:17:20.178Z,0.00
2019-02-23T03:18:20.267Z,0.00
2019-02-23T03:19:20.253Z,0.00
2019-02-23T03:20:20.297Z,0.00
2019-02-23T03:21:20.338Z,0.00
2019-02-23T03:22:20.377Z,0.00
2019-02-23T03:23:20.454Z,0.00
2019-02-23T03:24:20.460Z,0.00
2019-02-23T03:25:20.499Z,0.00
2019-02-23T03:26:20.543Z,0.00
2019-02-23T03:27:20.588Z,0.00
2019-02-23T03:28:20.663Z,0.00
2019-02-23T03:29:20.669Z,0.00
2019-02-23T03:30:20.708Z,0.00
2019-02-23T03:31:20.751Z,0.00
2019-02-23T03:32:20.792Z,0.00
2019-02-23T03:33:20.850Z,0.00
2019-02-23T03:34:20.891Z,0.00
2019-02-23T03:35:20.921Z,0.00
2019-02-23T03:36:20.957Z,0.00
2019-02-23T03:37:20.998Z,0.00
2019-02-23T03:38:21.035Z,0.00
2019-02-23T03:39:21.103Z,0.00
2019-02-23T03:40:21.119Z,0.00
2019-02-23T03:41:21.168Z,0.00
2019-02-23T03:42:21.214Z,0.00
2019-02-23T03:43:21.245Z,0.00
2019-02-23T03:44:21.304Z,0.00
2019-02-23T03:45:21.326Z,0.00
2019-02-23T03:46:21.371Z,0.00
2019-02-23T03:47:21.410Z,0.00
2019-02-23T03:48:21.462Z,0.00
2019-02-23T03:49:21.509Z,0.00
2019-02-23T03:50:21.550Z,0.00
2019-02-23T03:51:21.583Z,0.00
2019-02-23T03:52:21.615Z,0.00
2019-02-23T03:53:21.654Z,0.00
2019-02-23T03:54:21.722Z,0.00
2019-02-23T03:55:21.744Z,0.00
2019-02-23T03:56:21.783Z,0.00
2019-02-23T03:57:21.821Z,0.00
2019-02-23T03:58:21.868Z,0.00
2019-02-23T03:59:21.927Z,0.00
2019-02-23T04:00:21.962Z,0.00
2019-02-23T04:01:21.984Z,0.00
2019-02-23T04:02:22.026Z,0.00
2019-02-23T04:03:22.068Z,0.00
2019-02-23T04:04:22.107Z,0.00
2019-02-23T04:05:22.190Z,0.00
2019-02-23T04:06:22.190Z,0.00
2019-02-23T04:07:22.230Z,0.00
2019-02-23T04:08:22.281Z,0.00
2019-02-23T04:09:22.342Z,0.00
2019-02-23T04:10:22.373Z,0.00
2019-02-23T04:11:22.397Z,0.00
2019-02-23T04:12:22.445Z,0.00
2019-02-23T04:13:22.475Z,0.00
2019-02-23T04:14:22.530Z,0.00
2019-02-23T04:15:22.573Z,0.00
2019-02-23T04:16:22.600Z,0.00
2019-02-23T04:17:22.645Z,0.00
2019-02-23T04:18:22.690Z,0.00
2019-02-23T04:19:22.719Z,0.00
2019-02-23T04:20:22.777Z,0.00
2019-02-23T04:21:22.808Z,0.00
2019-02-23T04:22:22.850Z,0.00
2019-02-23T04:23:22.890Z,0.00
2019-02-23T04:24:22.933Z,0.00
2019-02-23T04:25:23.120Z,0.00
2019-02-23T04:26:23.012Z,0.00
2019-02-23T04:27:23.048Z,0.00
2019-02-23T04:28:23.104Z,0.00
2019-02-23T04:29:23.129Z,0.00
2019-02-23T04:30:23.198Z,0.00
2019-02-23T04:31:23.241Z,0.00
2019-02-23T04:32:23.397Z,0.00
2019-02-23T04:33:23.299Z,0.00
2019-02-23T04:34:23.331Z,0.00
2019-02-23T04:35:23.375Z,0.00
2019-02-23T04:36:23.444Z,0.00
2019-02-23T04:37:23.456Z,0.00
2019-02-23T04:38:23.495Z,0.00
2019-02-23T04:39:23.669Z,0.00
2019-02-23T04:40:23.578Z,0.00
2019-02-23T04:41:23.633Z,0.00
2019-02-23T04:42:23.659Z,0.00
2019-02-23T04:43:23.700Z,0.00
2019-02-23T04:44:23.739Z,0.00
2019-02-23T04:45:23.779Z,0.00
2019-02-23T04:46:23.910Z,0.00
2019-02-23T04:47:23.862Z,0.00
2019-02-23T04:48:23.903Z,0.00
2019-02-23T04:49:25.965Z,0.00
2019-02-23T04:50:23.991Z,0.00
2019-02-23T04:51:24.048Z,0.00
2019-02-23T04:52:24.064Z,0.00
2019-02-23T04:53:24.105Z,0.00
2019-02-23T04:54:24.146Z,0.00
2019-02-23T04:55:24.287Z,0.00
2019-02-23T04:56:24.251Z,0.00
2019-02-23T04:57:24.295Z,0.00
2019-02-23T04:58:24.309Z,0.00
2019-02-23T04:59:24.353Z,0.00
2019-02-23T05:00:24.388Z,0.00
2019-02-23T05:01:24.453Z,0.00
2019-02-23T05:02:24.472Z,0.00
2019-02-23T05:03:24.512Z,0.00
2019-02-23T05:04:24.551Z,0.00
2019-02-23T05:05:24.622Z,0.00
2019-02-23T05:06:24.671Z,0.00
2019-02-23T05:07:24.673Z,0.00
2019-02-23T05:08:24.717Z,0.00
2019-02-23T05:09:24.764Z,0.00
2019-02-23T05:10:24.797Z,0.00
2019-02-23T05:11:24.863Z,0.00
2019-02-23T05:12:24.897Z,0.00
2019-02-23T05:13:24.915Z,0.00
2019-02-23T05:14:24.957Z,0.00
2019-02-23T05:15:24.999Z,0.00
2019-02-23T05:16:25.066Z,0.00
2019-02-23T05:17:25.079Z,0.00
2019-02-23T05:18:25.118Z,0.00
2019-02-23T05:19:25.160Z,0.00
2019-02-23T05:20:25.210Z,0.00
2019-02-23T05:21:26.839Z,0.00
2019-02-23T05:22:25.300Z,0.00
2019-02-23T05:23:25.339Z,0.00
2019-02-23T05:24:25.370Z,0.00
2019-02-23T05:25:25.408Z,0.00
2019-02-23T05:26:25.447Z,0.00
2019-02-23T05:27:25.523Z,0.00
2019-02-23T05:28:25.524Z,0.00
2019-02-23T05:29:25.560Z,0.00
2019-02-23T05:30:25.600Z,0.00
2019-02-23T05:31:25.647Z,0.00
2019-02-23T05:32:25.703Z,0.00
2019-02-23T05:33:25.738Z,0.00
2019-02-23T05:34:25.777Z,0.00
2019-02-23T05:35:25.809Z,0.00
2019-02-23T05:36:25.848Z,0.00
2019-02-23T05:37:25.902Z,0.00
2019-02-23T05:38:25.946Z,0.00
2019-02-23T05:39:25.989Z,0.00
2019-02-23T05:40:26.011Z,0.00
2019-02-23T05:41:26.053Z,0.00
2019-02-23T05:42:26.090Z,4.00
2019-02-23T05:43:26.135Z,4.00
2019-02-23T05:44:26.203Z,0.00
2019-02-23T05:45:26.209Z,4.00
2019-02-23T05:46:26.249Z,4.00
2019-02-23T05:47:26.308Z,4.00
2019-02-23T05:48:26.354Z,8.00
2019-02-23T05:49:26.368Z,8.00
2019-02-23T05:50:26.410Z,8.00
2019-02-23T05:51:38.086Z,8.00
2019-02-23T05:52:26.490Z,12.00
2019-02-23T05:53:26.554Z,16.00
2019-02-23T05:54:26.576Z,16.00
2019-02-23T05:55:26.615Z,20.00
2019-02-23T05:56:26.665Z,24.00
2019-02-23T05:57:26.699Z,32.00
2019-02-23T05:58:26.765Z,36.00
2019-02-23T05:59:26.783Z,44.00
2019-02-23T06:00:26.818Z,52.00
2019-02-23T06:01:26.860Z,64.00
2019-02-23T06:02:26.903Z,72.00
2019-02-23T06:03:26.956Z,88.00
2019-02-23T06:04:26.980Z,100.00
2019-02-23T06:05:27.018Z,116.00
2019-02-23T06:06:27.060Z,136.00
2019-02-23T06:07:27.106Z,156.00
2019-02-23T06:08:27.168Z,180.00
2019-02-23T06:09:27.211Z,204.00
2019-02-23T06:10:27.220Z,228.00
2019-02-23T06:11:27.271Z,260.00
2019-02-23T06:12:27.301Z,288.00
2019-02-23T06:13:27.363Z,320.00
2019-02-23T06:14:27.403Z,356.00
2019-02-23T06:15:27.421Z,392.00
2019-02-23T06:16:27.458Z,428.00
2019-02-23T06:17:27.501Z,472.00
2019-02-23T06:18:27.566Z,508.00
2019-02-23T06:19:27.601Z,552.00
2019-02-23T06:20:27.633Z,600.00
2019-02-23T06:21:27.665Z,644.00
2019-02-23T06:22:27.705Z,692.00
2019-02-23T06:23:27.759Z,744.00
2019-02-23T06:24:27.846Z,792.00
2019-02-23T06:25:27.834Z,840.00
2019-02-23T06:26:27.875Z,896.00
2019-02-23T06:27:27.912Z,952.00
2019-02-23T06:28:27.942Z,1008.00
2019-02-23T06:29:28.005Z,1060.00
2019-02-23T06:30:28.030Z,1120.00
2019-02-23T06:31:28.188Z,1180.00
2019-02-23T06:32:28.106Z,1236.00
2019-02-23T06:33:28.162Z,1292.00
2019-02-23T06:34:28.212Z,1348.00
2019-02-23T06:35:28.230Z,1404.00
2019-02-23T06:36:28.269Z,1456.00
2019-02-23T06:37:28.309Z,1504.00
2019-02-23T06:38:28.472Z,1560.00
2019-02-23T06:39:28.406Z,1620.00
2019-02-23T06:40:28.446Z,1688.00
2019-02-23T06:41:28.487Z,1748.00
2019-02-23T06:42:28.512Z,1808.00
2019-02-23T06:43:28.551Z,1864.00
2019-02-23T06:44:28.615Z,1920.00
2019-02-23T06:45:28.638Z,1988.00
2019-02-23T06:46:28.672Z,2060.00
2019-02-23T06:47:28.728Z,2116.00
2019-02-23T06:48:28.766Z,2164.00
2019-02-23T06:49:28.815Z,2212.00
2019-02-23T06:50:28.854Z,2256.00
2019-02-23T06:51:28.879Z,2304.00
2019-02-23T06:52:28.914Z,2348.00
2019-02-23T06:53:28.955Z,2404.00
2019-02-23T06:54:28.999Z,2496.00
2019-02-23T06:55:29.059Z,2620.00
2019-02-23T06:56:29.078Z,2664.00
2019-02-23T06:57:29.117Z,2728.00
2019-02-23T06:58:29.167Z,2808.00
2019-02-23T06:59:29.207Z,2884.00
2019-02-23T07:00:29.253Z,2968.00
2019-02-23T07:01:29.284Z,3072.00
2019-02-23T07:02:29.339Z,3152.00
2019-02-23T07:03:29.361Z,3216.00
2019-02-23T07:04:29.400Z,3304.00
2019-02-23T07:05:29.464Z,3396.00
2019-02-23T07:06:29.481Z,3464.00
2019-02-23T07:07:29.534Z,3548.00
2019-02-23T07:08:29.567Z,3724.00
2019-02-23T07:09:29.610Z,3924.00
2019-02-23T07:10:29.677Z,4048.00
2019-02-23T07:11:29.688Z,4204.00
2019-02-23T07:12:29.720Z,4452.00
2019-02-23T07:13:29.772Z,4732.00
2019-02-23T07:14:29.812Z,4964.00
2019-02-23T07:15:29.892Z,5152.00
2019-02-23T07:16:29.903Z,5356.00
2019-02-23T07:17:29.927Z,5840.00
2019-02-23T07:18:29.997Z,6392.00
2019-02-23T07:19:30.017Z,6628.00
2019-02-23T07:20:30.085Z,6400.00
2019-02-23T07:21:30.100Z,6440.00
2019-02-23T07:22:31.918Z,6604.00
2019-02-23T07:23:30.173Z,6812.00
2019-02-23T07:24:30.213Z,6508.00
2019-02-23T07:25:30.269Z,6324.00
2019-02-23T07:26:30.309Z,6556.00
2019-02-23T07:27:30.339Z,6496.00
2019-02-23T07:28:30.377Z,6396.00
2019-02-23T07:29:30.419Z,6524.00
2019-02-23T07:30:30.464Z,6652.00
2019-02-23T07:31:30.523Z,6744.00
2019-02-23T07:32:30.544Z,6668.00
2019-02-23T07:33:33.167Z,6900.00
2019-02-23T07:34:30.626Z,7092.00
2019-02-23T07:35:30.679Z,7212.00
2019-02-23T07:36:30.738Z,7376.00
2019-02-23T07:37:30.795Z,7476.00
2019-02-23T07:38:30.790Z,7132.00
2019-02-23T07:39:30.834Z,6936.00
2019-02-23T07:40:30.872Z,7184.00
2019-02-23T07:41:30.916Z,7352.00
2019-02-23T07:42:30.975Z,7660.00
2019-02-23T07:43:30.998Z,8132.00
2019-02-23T07:44:31.038Z,7944.00
2019-02-23T07:45:31.081Z,7596.00
2019-02-23T07:46:31.173Z,7480.00
2019-02-23T07:47:31.162Z,7484.00
2019-02-23T07:48:31.201Z,8000.00
2019-02-23T07:49:31.268Z,8864.00
2019-02-23T07:50:31.292Z,8968.00
2019-02-23T07:51:31.351Z,9568.00
2019-02-23T07:52:31.397Z,9412.00
2019-02-23T07:53:31.428Z,8992.00
2019-02-23T07:54:31.456Z,9072.00
2019-02-23T07:55:31.505Z,8664.00
2019-02-23T07:56:31.537Z,8416.00
2019-02-23T07:57:31.614Z,8972.00
2019-02-23T07:58:31.643Z,9940.00
2019-02-23T07:59:31.668Z,10844.00
2019-02-23T08:00:31.754Z,10944.00
2019-02-23T08:01:31.760Z,11660.00
2019-02-23T08:02:31.811Z,12200.00
2019-02-23T08:03:31.834Z,13304.00
2019-02-23T08:04:31.883Z,16864.00
2019-02-23T08:05:31.926Z,18464.00
2019-02-23T08:06:31.959Z,17952.00
2019-02-23T08:07:32.035Z,19648.00
2019-02-23T08:08:32.072Z,19840.00
2019-02-23T08:09:32.190Z,21280.00
2019-02-23T08:10:32.137Z,23488.00
2019-02-23T08:11:32.172Z,16256.00
2019-02-23T08:12:32.234Z,24608.00
2019-02-23T08:13:32.278Z,24608.00
2019-02-23T08:14:32.311Z,21536.00
2019-02-23T08:15:32.356Z,22528.00
2019-02-23T08:16:32.472Z,23648.00
2019-02-23T08:17:32.435Z,24928.00
2019-02-23T08:18:32.500Z,24832.00
2019-02-23T08:19:32.527Z,23904.00
2019-02-23T08:20:32.567Z,22656.00
2019-02-23T08:21:32.619Z,22496.00
2019-02-23T08:22:37.392Z,21728.00
2019-02-23T08:23:32.745Z,23648.00
2019-02-23T08:24:32.798Z,25312.00
2019-02-23T08:25:32.804Z,24832.00
2019-02-23T08:26:32.840Z,26560.00
2019-02-23T08:27:32.897Z,26784.00
2019-02-23T08:28:32.967Z,27904.00
2019-02-23T08:29:32.988Z,28992.00
2019-02-23T08:30:33.073Z,28256.00
2019-02-23T08:31:33.078Z,28288.00
2019-02-23T08:32:33.125Z,29280.00
2019-02-23T08:33:33.192Z,29600.00
2019-02-23T08:34:33.218Z,29472.00
2019-02-23T08:35:33.263Z,28896.00
2019-02-23T08:36:33.317Z,28800.00
2019-02-23T08:37:33.402Z,29472.00
2019-02-23T08:38:33.422Z,30560.00
2019-02-23T08:39:33.451Z,30400.00
2019-02-23T08:40:33.539Z,31104.00
2019-02-23T08:41:33.552Z,32032.00
2019-02-23T08:42:33.597Z,32640.00
2019-02-23T08:43:33.665Z,32160.00
2019-02-23T08:44:33.711Z,32640.00
2019-02-23T08:45:33.769Z,33696.00
2019-02-23T08:46:33.787Z,33472.00
2019-02-23T08:47:33.842Z,34240.00
2019-02-23T08:48:33.931Z,34624.00
2019-02-23T08:49:33.935Z,34784.00
2019-02-23T08:50:33.982Z,34624.00
2019-02-23T08:51:34.030Z,35840.00
2019-02-23T08:52:34.076Z,35648.00
2019-02-23T08:53:34.141Z,35328.00
2019-02-23T08:54:34.187Z,35872.00
2019-02-23T08:55:34.216Z,37664.00
2019-02-23T08:56:34.274Z,37824.00
2019-02-23T08:57:34.321Z,37376.00
2019-02-23T08:58:34.364Z,38112.00
2019-02-23T08:59:34.437Z,37152.00
2019-02-23T09:00:34.462Z,37952.00
2019-02-23T09:01:34.519Z,39584.00
2019-02-23T09:02:34.580Z,39872.00
2019-02-23T09:03:34.615Z,38528.00
2019-02-23T09:04:34.687Z,37504.00
2019-02-23T09:05:34.710Z,37536.00
2019-02-23T09:06:34.754Z,38656.00
2019-02-23T09:07:34.810Z,38976.00
2019-02-23T09:08:34.859Z,39552.00
2019-02-23T09:09:34.915Z,40416.00
2019-02-23T09:10:34.945Z,40032.00
2019-02-23T09:11:35.024Z,40256.00
2019-02-23T09:12:35.052Z,42784.00
2019-02-23T09:13:35.091Z,44096.00
2019-02-23T09:14:35.149Z,42592.00
2019-02-23T09:15:35.192Z,42496.00
2019-02-23T09:16:35.262Z,43392.00
2019-02-23T09:17:35.317Z,44128.00
2019-02-23T09:18:35.466Z,44672.00
2019-02-23T09:19:35.387Z,44960.00
2019-02-23T09:20:35.472Z,45248.00
2019-02-23T09:21:35.497Z,45920.00
2019-02-23T09:22:35.536Z,45280.00
2019-02-23T09:23:35.594Z,46592.00
2019-02-23T09:24:35.646Z,48576.00
2019-02-23T09:25:35.705Z,50112.00
2019-02-23T09:26:35.734Z,48160.00
2019-02-23T09:27:35.780Z,46528.00
2019-02-23T09:28:35.831Z,48672.00
2019-02-23T09:29:35.887Z,50080.00
2019-02-23T09:30:35.948Z,49856.00
2019-02-23T09:31:35.990Z,49600.00
2019-02-23T09:32:36.035Z,52512.00
2019-02-23T09:33:36.086Z,56896.00
2019-02-23T09:34:36.126Z,57568.00
2019-02-23T09:35:36.202Z,55744.00
2019-02-23T09:36:36.380Z,53056.00
2019-02-23T09:37:36.299Z,51296.00
2019-02-23T09:38:36.325Z,51168.00
2019-02-23T09:39:36.375Z,53600.00
2019-02-23T09:40:36.424Z,56672.00
2019-02-23T09:41:36.500Z,57568.00
2019-02-23T09:42:36.540Z,56992.00
2019-02-23T09:43:36.701Z,54976.00
2019-02-23T09:44:36.637Z,52032.00
2019-02-23T09:45:36.691Z,49760.00
2019-02-23T09:46:36.741Z,49344.00
2019-02-23T09:47:36.774Z,51616.00
2019-02-23T09:48:36.829Z,54816.00
2019-02-23T09:49:36.869Z,54816.00
2019-02-23T09:50:36.997Z,52096.00
2019-02-23T09:51:36.989Z,50944.00
2019-02-23T09:52:37.017Z,53856.00
2019-02-23T09:53:37.075Z,58560.00
2019-02-23T09:54:37.129Z,59904.00
2019-02-23T09:55:37.172Z,59264.00
2019-02-23T09:56:37.243Z,60544.00
2019-02-23T09:57:37.291Z,59712.00
2019-02-23T09:58:37.318Z,52288.00
2019-02-23T09:59:39.928Z,49664.00
2019-02-23T10:00:37.447Z,48640.00
2019-02-23T10:01:37.474Z,47072.00
2019-02-23T10:02:37.546Z,44000.00
2019-02-23T10:03:37.587Z,47552.00
2019-02-23T10:04:37.619Z,43072.00
2019-02-23T10:05:38.327Z,41056.00
2019-02-23T10:06:37.803Z,39968.00
2019-02-23T10:07:37.795Z,36256.00
2019-02-23T10:08:37.828Z,47872.00
2019-02-23T10:09:37.870Z,56736.00
2019-02-23T10:10:37.929Z,60512.00
2019-02-23T10:11:37.968Z,56768.00
2019-02-23T10:12:38.046Z,60960.00
2019-02-23T10:13:38.086Z,58432.00
2019-02-23T10:14:38.132Z,53952.00
2019-02-23T10:15:38.179Z,54400.00
2019-02-23T10:16:38.217Z,57376.00
2019-02-23T10:17:38.296Z,63968.00
2019-02-23T10:18:38.347Z,64768.00
2019-02-23T10:19:38.382Z,61472.00
2019-02-23T10:20:38.419Z,55552.00
2019-02-23T10:21:38.469Z,51904.00
2019-02-23T10:22:39.602Z,43392.00
2019-02-23T10:23:38.606Z,40064.00
2019-02-23T10:24:38.632Z,53952.00
2019-02-23T10:25:38.680Z,54240.00
2019-02-23T10:26:38.719Z,53728.00
2019-02-23T10:27:38.777Z,51456.00
2019-02-23T10:28:38.855Z,51040.00
2019-02-23T10:29:38.870Z,50720.00
2019-02-23T10:30:38.932Z,49504.00
2019-02-23T10:31:39.036Z,51392.00
2019-02-23T10:32:39.017Z,56640.00
2019-02-23T10:33:47.326Z,56896.00
2019-02-23T10:34:39.122Z,54688.00
2019-02-23T10:35:39.178Z,55648.00
2019-02-23T10:36:39.226Z,59040.00
2019-02-23T10:37:39.277Z,63616.00
2019-02-23T10:38:39.383Z,63680.00
2019-02-23T10:39:39.382Z,62080.00
2019-02-23T10:40:39.426Z,61728.00
2019-02-23T10:41:39.484Z,63168.00
2019-02-23T10:42:39.532Z,64544.00
2019-02-23T10:43:39.608Z,63264.00
2019-02-23T10:44:39.635Z,61376.00
2019-02-23T10:45:39.685Z,62432.00
2019-02-23T10:46:39.729Z,64192.00
2019-02-23T10:47:39.803Z,65184.00
2019-02-23T10:48:39.856Z,63232.00
2019-02-23T10:49:39.902Z,60256.00
2019-02-23T10:50:39.936Z,61856.00
2019-02-23T10:51:39.990Z,64256.00
2019-02-23T10:52:40.036Z,64736.00
2019-02-23T10:53:40.085Z,62976.00
2019-02-23T10:54:40.182Z,63328.00
2019-02-23T10:55:40.197Z,63008.00
2019-02-23T10:56:40.335Z,63648.00
2019-02-23T10:57:40.291Z,63456.00
2019-02-23T10:58:40.341Z,63456.00
2019-02-23T10:59:40.429Z,64704.00
2019-02-23T11:00:40.439Z,65024.00
2019-02-23T11:01:40.490Z,64000.00
2019-02-23T11:02:40.549Z,62656.00
2019-02-23T11:03:40.591Z,62656.00
2019-02-23T11:04:40.675Z,64928.00
2019-02-23T11:05:40.701Z,64800.00
2019-02-23T11:06:40.750Z,63616.00
2019-02-23T11:07:40.808Z,62144.00
2019-02-23T11:08:40.861Z,59456.00
2019-02-23T11:09:40.930Z,62112.00
2019-02-23T11:10:40.961Z,64032.00
2019-02-23T11:11:41.016Z,67840.00
2019-02-23T11:12:41.108Z,66624.00
2019-02-23T11:13:41.116Z,63968.00
2019-02-23T11:14:41.160Z,62528.00
2019-02-23T11:15:41.222Z,64288.00
2019-02-23T11:16:41.251Z,67296.00
2019-02-23T11:17:41.305Z,71104.00
2019-02-23T11:18:41.369Z,71904.00
2019-02-23T11:19:41.436Z,69856.00
2019-02-23T11:20:41.477Z,70848.00
2019-02-23T11:21:41.531Z,71520.00
2019-02-23T11:22:41.559Z,71392.00
2019-02-23T11:23:44.463Z,69536.00
2019-02-23T11:24:41.659Z,66560.00
2019-02-23T11:25:41.738Z,64384.00
2019-02-23T11:26:41.763Z,66400.00
2019-02-23T11:27:41.814Z,67584.00
2019-02-23T11:28:41.872Z,70400.00
2019-02-23T11:29:41.939Z,73120.00
2019-02-23T11:30:41.988Z,72672.00
2019-02-23T11:31:42.018Z,70112.00
2019-02-23T11:32:42.072Z,68064.00
2019-02-23T11:33:42.120Z,67232.00
2019-02-23T11:34:42.180Z,67616.00
2019-02-23T11:35:42.251Z,67744.00
2019-02-23T11:36:42.280Z,72512.00
2019-02-23T11:37:42.433Z,72928.00
2019-02-23T11:38:42.379Z,71360.00
2019-02-23T11:39:42.437Z,66784.00
2019-02-23T11:40:42.501Z,63328.00
2019-02-23T11:41:42.542Z,62784.00
2019-02-23T11:42:42.587Z,65920.00
2019-02-23T11:43:42.658Z,68096.00
2019-02-23T11:44:42.704Z,67520.00
2019-02-23T11:45:42.772Z,64320.00
2019-02-23T11:46:59.370Z,60288.00
2019-02-23T11:47:42.836Z,61216.00
2019-02-23T11:48:42.904Z,63264.00
2019-02-23T11:49:42.947Z,65472.00
2019-02-23T11:50:43.024Z,65984.00
2019-02-23T11:51:43.050Z,67232.00
2019-02-23T11:52:43.103Z,67072.00
2019-02-23T11:53:43.154Z,65440.00
2019-02-23T11:54:44.205Z,61216.00
2019-02-23T11:55:43.327Z,58080.00
2019-02-23T11:56:43.339Z,57344.00
2019-02-23T11:57:43.348Z,60192.00
2019-02-23T11:58:43.401Z,64288.00
2019-02-23T11:59:43.466Z,66592.00
2019-02-23T12:00:43.516Z,64192.00
2019-02-23T12:01:43.587Z,63296.00
2019-02-23T12:02:52.127Z,62080.00
2019-02-23T12:03:43.658Z,61216.00
2019-02-23T12:04:43.855Z,60800.00
2019-02-23T12:05:43.785Z,62176.00
2019-02-23T12:06:43.852Z,65696.00
2019-02-23T12:07:43.867Z,67328.00
2019-02-23T12:08:43.917Z,66304.00
2019-02-23T12:09:43.968Z,61856.00
2019-02-23T12:10:44.023Z,61280.00
2019-02-23T12:11:44.192Z,63840.00
2019-02-23T12:12:44.123Z,66432.00
2019-02-23T12:13:44.174Z,67104.00
2019-02-23T12:14:44.241Z,65184.00
2019-02-23T12:15:44.278Z,60928.00
2019-02-23T12:16:44.358Z,59136.00
2019-02-23T12:17:44.385Z,60416.00
2019-02-23T12:18:44.451Z,63168.00
2019-02-23T12:19:44.490Z,63296.00
2019-02-23T12:20:44.543Z,63744.00
2019-02-23T12:21:44.636Z,64832.00
2019-02-23T12:22:44.637Z,65344.00
2019-02-23T12:23:44.702Z,65152.00
2019-02-23T12:24:44.752Z,63744.00
2019-02-23T12:25:44.796Z,61728.00
2019-02-23T12:26:44.864Z,59936.00
2019-02-23T12:27:44.919Z,59232.00
2019-02-23T12:28:44.956Z,58880.00
2019-02-23T12:29:45.001Z,59840.00
2019-02-23T12:30:45.055Z,59744.00